Time;durP1;ratioP1;P1;durP2;ratioP2;P2;SDS_P1;SDS_P2;PMS_P1;PMS_P2;Temp;Humidity;BMP_temperature;BMP_pressure;BME280_temperature;BME280_humidity;BME280_pressure;Samples;Min_cycle;Max_cycle;Signal;HPM_P1;HPM_P2
2024/02/13 00:00:32;;;;;;;22.27;7.63;;;5.00;99.90;;;;;;5060326;28;20071;-69
2024/02/13 00:02:59;;;;;;;25.33;7.95;;;5.00;99.90;;;;;;5061906;28;20696;-69
2024/02/13 00:05:26;;;;;;;26.50;7.00;;;4.90;99.90;;;;;;5060510;28;20021;-70
2024/02/13 00:07:52;;;;;;;19.77;7.25;;;4.90;99.90;;;;;;5061755;28;20044;-68
2024/02/13 00:10:21;;;;;;;24.23;7.93;;;4.90;99.90;;;;;;5061702;28;20041;-69
2024/02/13 00:12:46;;;;;;;23.27;8.30;;;4.90;99.90;;;;;;5061369;28;20476;-70
2024/02/13 00:15:20;;;;;;;18.42;7.50;;;4.90;99.90;;;;;;5061886;28;20040;-70
2024/02/13 00:17:46;;;;;;;22.13;7.43;;;4.80;99.90;;;;;;5059805;28;20032;-69
2024/02/13 00:20:14;;;;;;;23.77;7.90;;;4.80;99.90;;;;;;5061249;28;20039;-70
2024/02/13 00:22:41;;;;;;;19.27;7.80;;;4.90;99.90;;;;;;5061301;28;20035;-69
2024/02/13 00:25:08;;;;;;;23.63;7.18;;;4.90;99.90;;;;;;5065388;28;20036;-70
2024/02/13 00:27:35;;;;;;;32.85;8.27;;;4.90;99.90;;;;;;5063963;28;20045;-69
2024/02/13 00:30:03;;;;;;;22.23;7.22;;;4.90;99.90;;;;;;5065718;28;20157;-69
2024/02/13 00:32:29;;;;;;;19.55;7.35;;;5.00;99.90;;;;;;5064835;28;20017;-68
2024/02/13 00:34:55;;;;;;;22.35;7.45;;;5.00;99.90;;;;;;5065523;28;20071;-69
2024/02/13 00:37:23;;;;;;;24.52;7.63;;;5.00;99.90;;;;;;5065321;28;20021;-68
2024/02/13 00:39:49;;;;;;;19.02;6.45;;;5.20;99.90;;;;;;5064027;28;20033;-70
2024/02/13 00:42:14;;;;;;;22.75;7.57;;;5.10;99.90;;;;;;5064041;28;20401;-70
2024/02/13 00:44:42;;;;;;;19.52;7.18;;;5.10;99.90;;;;;;5065511;28;20021;-69
2024/02/13 00:47:08;;;;;;;20.90;6.35;;;5.10;99.90;;;;;;5065042;28;20068;-69
2024/02/13 00:49:34;;;;;;;22.50;7.07;;;5.10;99.90;;;;;;5065143;28;20051;-68
2024/02/13 00:52:01;;;;;;;17.70;6.82;;;5.10;99.90;;;;;;5063577;28;20021;-69
2024/02/13 00:54:26;;;;;;;16.75;6.50;;;5.10;99.90;;;;;;5064216;28;20510;-69
2024/02/13 00:56:52;;;;;;;23.70;7.07;;;5.00;99.90;;;;;;5065054;28;20045;-70
2024/02/13 00:59:19;;;;;;;23.10;7.85;;;5.00;99.90;;;;;;5064992;28;20036;-70
2024/02/13 01:01:44;;;;;;;16.80;6.10;;;5.10;99.90;;;;;;5064926;28;20033;-70
2024/02/13 01:04:10;;;;;;;18.52;6.50;;;5.10;99.90;;;;;;5063417;28;20036;-71
2024/02/13 01:06:36;;;;;;;20.17;7.10;;;5.20;99.90;;;;;;5062822;28;20059;-70
2024/02/13 01:09:05;;;;;;;17.35;7.00;;;5.20;99.90;;;;;;5063557;28;20029;-69
2024/02/13 01:11:35;;;;;;;15.65;6.40;;;5.20;99.90;;;;;;5064291;28;20029;-71
2024/02/13 01:14:02;;;;;;;16.48;6.47;;;5.20;99.90;;;;;;5064227;28;20024;-69
2024/02/13 01:16:28;;;;;;;20.95;6.13;;;5.20;99.90;;;;;;5063556;28;20027;-70
2024/02/13 01:18:54;;;;;;;19.27;6.00;;;5.20;99.90;;;;;;5059510;28;20032;-72
2024/02/13 01:21:22;;;;;;;17.58;5.45;;;5.20;99.90;;;;;;5060953;28;20025;-69
2024/02/13 01:23:48;;;;;;;20.27;5.72;;;5.20;99.90;;;;;;5063233;28;20269;-69
2024/02/13 01:26:14;;;;;;;18.63;6.50;;;5.20;99.90;;;;;;5063971;28;20024;-70
2024/02/13 01:28:40;;;;;;;23.65;6.20;;;5.20;99.90;;;;;;5064476;28;20024;-69
2024/02/13 01:31:06;;;;;;;19.67;6.22;;;5.30;99.90;;;;;;5064691;28;20017;-70
2024/02/13 01:33:33;;;;;;;18.13;5.28;;;5.30;99.90;;;;;;5064150;28;20752;-68
2024/02/13 01:36:01;;;;;;;19.85;6.43;;;5.20;99.90;;;;;;5062440;28;20024;-68
2024/02/13 01:38:29;;;;;;;21.88;6.85;;;5.20;99.90;;;;;;5062230;28;20075;-70
2024/02/13 01:40:54;;;;;;;21.42;6.35;;;5.30;99.90;;;;;;5062040;28;20055;-70
2024/02/13 01:43:21;;;;;;;19.17;6.55;;;5.30;99.90;;;;;;5063727;28;20033;-69
2024/02/13 01:45:48;;;;;;;19.85;6.35;;;5.20;99.90;;;;;;5063594;28;20049;-71
2024/02/13 01:48:17;;;;;;;19.63;6.68;;;5.20;99.90;;;;;;5061680;28;20037;-68
2024/02/13 01:50:47;;;;;;;20.90;6.40;;;5.10;99.90;;;;;;5062107;28;20120;-68
2024/02/13 01:53:14;;;;;;;23.73;6.20;;;5.10;99.90;;;;;;5062316;28;20020;-69
2024/02/13 01:55:40;;;;;;;30.00;7.07;;;5.10;99.90;;;;;;5062967;28;20021;-68
2024/02/13 01:58:06;;;;;;;17.35;6.43;;;5.10;99.90;;;;;;5062323;28;20033;-70
2024/02/13 02:00:32;;;;;;;23.80;6.78;;;5.00;99.90;;;;;;5063349;28;20029;-70
2024/02/13 02:02:59;;;;;;;16.15;6.63;;;5.00;99.90;;;;;;5063313;28;20079;-71
2024/02/13 02:05:25;;;;;;;18.35;6.07;;;5.10;99.90;;;;;;5063045;28;20017;-68
2024/02/13 02:07:52;;;;;;;18.05;6.18;;;5.00;99.90;;;;;;5059926;28;20064;-69
2024/02/13 02:10:17;;;;;;;25.75;7.00;;;5.00;99.90;;;;;;5061534;28;20037;-70
2024/02/13 02:12:49;;;;;;;25.08;7.60;;;5.00;99.90;;;;;;5062598;28;20032;-70
2024/02/13 02:15:16;;;;;;;19.05;6.78;;;4.90;99.90;;;;;;5063289;28;20021;-68
2024/02/13 02:17:51;;;;;;;19.88;6.28;;;4.90;99.90;;;;;;5062449;28;20044;-70
2024/02/13 02:20:17;;;;;;;22.80;7.03;;;4.80;99.90;;;;;;5063291;28;20017;-69
2024/02/13 02:22:43;;;;;;;24.95;7.28;;;4.90;99.90;;;;;;5061845;28;20052;-67
2024/02/13 02:25:08;;;;;;;23.10;7.35;;;4.90;99.90;;;;;;5061570;28;20036;-68
2024/02/13 02:27:35;;;;;;;22.80;7.70;;;4.90;99.90;;;;;;5062473;28;20048;-70
2024/02/13 02:30:00;;;;;;;21.70;7.00;;;4.80;99.90;;;;;;5062641;28;20104;-69
2024/02/13 02:32:28;;;;;;;18.77;7.40;;;4.90;99.90;;;;;;5062628;28;20021;-68
2024/02/13 02:34:55;;;;;;;25.27;7.35;;;4.80;99.90;;;;;;5062398;28;20024;-68
2024/02/13 02:37:21;;;;;;;19.42;7.18;;;4.90;99.90;;;;;;5060050;28;20385;-69
2024/02/13 02:39:46;;;;;;;25.98;7.15;;;5.00;99.90;;;;;;5062158;28;20029;-69
2024/02/13 02:42:13;;;;;;;19.23;7.70;;;4.90;99.90;;;;;;5062768;28;20546;-69
2024/02/13 02:44:39;;;;;;;25.10;7.80;;;4.90;99.90;;;;;;5062011;28;20166;-69
2024/02/13 02:47:05;;;;;;;20.80;6.38;;;4.90;99.90;;;;;;5061373;28;20072;-69
2024/02/13 02:49:31;;;;;;;19.27;7.20;;;5.00;99.90;;;;;;5061375;28;20021;-69
2024/02/13 02:51:56;;;;;;;18.67;7.78;;;5.00;99.90;;;;;;5060436;28;20036;-67
2024/02/13 02:54:23;;;;;;;18.25;7.72;;;5.10;99.90;;;;;;5060636;28;20119;-69
2024/02/13 02:56:49;;;;;;;21.30;7.78;;;5.10;99.90;;;;;;5062081;28;20047;-68
2024/02/13 02:59:16;;;;;;;24.33;8.15;;;5.00;99.90;;;;;;5061974;28;20073;-69
2024/02/13 03:01:41;;;;;;;24.05;8.73;;;5.00;99.90;;;;;;5062073;28;20040;-67
2024/02/13 03:04:07;;;;;;;19.17;8.43;;;5.00;99.90;;;;;;5061866;28;20406;-68
2024/02/13 03:06:33;;;;;;;23.70;9.35;;;5.10;99.90;;;;;;5060629;28;20504;-70
2024/02/13 03:09:00;;;;;;;23.98;9.38;;;5.00;99.90;;;;;;5062246;28;20017;-67
2024/02/13 03:11:26;;;;;;;27.33;9.55;;;5.00;99.90;;;;;;5062235;28;20123;-68
2024/02/13 03:13:52;;;;;;;29.35;9.65;;;5.00;99.90;;;;;;5060755;28;20025;-67
2024/02/13 03:16:17;;;;;;;29.02;9.95;;;5.00;99.90;;;;;;5062440;28;20024;-68
2024/02/13 03:18:43;;;;;;;30.90;10.38;;;5.00;99.90;;;;;;5062647;28;20064;-68
2024/02/13 03:21:09;;;;;;;31.17;9.93;;;5.00;99.90;;;;;;5062279;28;20097;-67
2024/02/13 03:23:34;;;;;;;27.45;10.95;;;5.00;99.90;;;;;;5062397;28;20067;-67
2024/02/13 03:26:00;;;;;;;30.30;10.45;;;5.00;99.90;;;;;;5062396;28;20021;-68
2024/02/13 03:28:25;;;;;;;23.08;10.23;;;4.90;99.90;;;;;;5060324;28;20037;-68
2024/02/13 03:30:53;;;;;;;29.67;10.90;;;4.90;99.90;;;;;;5062274;28;20031;-71
2024/02/13 03:33:20;;;;;;;33.95;11.45;;;4.90;99.90;;;;;;5061511;28;20021;-69
2024/02/13 03:35:50;;;;;;;37.25;12.35;;;4.90;99.90;;;;;;5062013;28;20025;-68
2024/02/13 03:38:15;;;;;;;31.45;11.63;;;4.80;99.90;;;;;;5061921;28;20025;-69
2024/02/13 03:40:41;;;;;;;32.50;11.65;;;4.80;99.90;;;;;;5061942;28;20033;-70
2024/02/13 03:43:06;;;;;;;32.85;11.30;;;4.80;99.90;;;;;;5062151;28;20024;-68
2024/02/13 03:45:32;;;;;;;30.48;11.98;;;4.80;99.90;;;;;;5062054;28;20029;-69
2024/02/13 03:47:58;;;;;;;26.77;11.52;;;4.70;99.90;;;;;;5061143;28;20079;-68
2024/02/13 03:50:24;;;;;;;31.45;12.38;;;4.70;99.90;;;;;;5061821;28;20111;-68
2024/02/13 03:52:49;;;;;;;26.67;11.75;;;4.70;99.90;;;;;;5060759;28;20400;-67
2024/02/13 03:55:15;;;;;;;32.35;12.43;;;4.70;99.90;;;;;;5061599;28;20032;-68
2024/02/13 03:57:40;;;;;;;29.13;11.90;;;4.60;99.90;;;;;;5060939;28;20055;-70
2024/02/13 04:00:07;;;;;;;31.20;12.57;;;4.60;99.90;;;;;;5061855;28;20033;-68
2024/02/13 04:02:33;;;;;;;32.08;13.35;;;4.60;99.90;;;;;;5058961;28;20056;-68
2024/02/13 04:04:59;;;;;;;39.88;13.73;;;4.60;99.90;;;;;;5059718;28;20025;-70
2024/02/13 04:07:24;;;;;;;38.97;12.88;;;4.50;99.90;;;;;;5060854;28;20051;-68
2024/02/13 04:09:51;;;;;;;36.00;14.10;;;4.50;99.90;;;;;;5061315;28;20068;-69
2024/02/13 04:12:16;;;;;;;37.60;13.85;;;4.50;99.90;;;;;;5061708;28;20033;-68
2024/02/13 04:14:42;;;;;;;33.53;13.98;;;4.50;99.90;;;;;;5061544;28;20025;-69
2024/02/13 04:17:09;;;;;;;34.53;14.13;;;4.50;99.90;;;;;;5061029;28;20021;-68
2024/02/13 04:19:36;;;;;;;36.88;13.65;;;4.40;99.90;;;;;;5058136;28;20024;-69
2024/02/13 04:22:01;;;;;;;36.97;12.93;;;4.40;99.90;;;;;;5061397;28;20033;-68
2024/02/13 04:24:27;;;;;;;38.65;14.30;;;4.40;99.90;;;;;;5061480;28;20028;-71
2024/02/13 04:26:52;;;;;;;41.08;14.82;;;4.40;99.90;;;;;;5061606;28;20047;-69
2024/02/13 04:29:18;;;;;;;39.33;15.38;;;4.40;99.90;;;;;;5061314;28;20520;-69
2024/02/13 04:31:44;;;;;;;43.22;15.68;;;4.40;99.90;;;;;;5061554;28;20021;-70
2024/02/13 04:34:10;;;;;;;39.75;14.98;;;4.40;99.90;;;;;;5061762;28;20091;-70
2024/02/13 04:36:39;;;;;;;35.08;15.52;;;4.30;99.90;;;;;;5061116;28;20021;-68
2024/02/13 04:39:07;;;;;;;35.03;14.82;;;4.30;99.90;;;;;;5060087;28;20013;-69
2024/02/13 04:41:33;;;;;;;38.08;15.77;;;4.30;99.90;;;;;;5061045;28;20063;-69
2024/02/13 04:43:58;;;;;;;39.83;16.15;;;4.30;99.90;;;;;;5058719;28;20029;-70
2024/02/13 04:46:24;;;;;;;44.40;17.95;;;4.30;99.90;;;;;;5061302;28;20529;-69
2024/02/13 04:48:51;;;;;;;39.78;16.25;;;4.30;99.90;;;;;;5061532;28;20103;-71
2024/02/13 04:51:17;;;;;;;37.42;15.35;;;4.30;99.90;;;;;;5059582;28;20029;-70
2024/02/13 04:53:43;;;;;;;37.28;17.00;;;4.30;99.90;;;;;;5061685;28;20029;-69
2024/02/13 04:56:09;;;;;;;37.28;16.38;;;4.30;99.90;;;;;;5059428;28;20073;-70
2024/02/13 04:58:36;;;;;;;39.42;16.25;;;4.30;99.90;;;;;;5060256;28;20025;-68
2024/02/13 05:01:05;;;;;;;41.72;16.17;;;4.30;99.90;;;;;;5059992;28;20668;-68
2024/02/13 05:08:58;;;;;;;44.00;17.17;;;4.30;99.90;;;;;;5057284;28;20043;-67
2024/02/13 05:11:24;;;;;;;42.45;18.13;;;4.20;99.90;;;;;;5063158;28;20084;-69
2024/02/13 05:13:50;;;;;;;44.38;19.23;;;4.30;99.90;;;;;;5063491;28;20119;-70
2024/02/13 05:16:17;;;;;;;38.85;18.55;;;4.30;99.90;;;;;;5064172;28;20056;-69
2024/02/13 05:18:46;;;;;;;50.78;19.52;;;4.30;99.90;;;;;;5062409;28;20075;-68
2024/02/13 05:21:19;;;;;;;39.63;18.25;;;4.30;99.90;;;;;;5063810;28;20063;-70
2024/02/13 05:23:47;;;;;;;43.88;19.55;;;4.30;99.90;;;;;;5064572;28;20028;-70
2024/02/13 05:26:17;;;;;;;45.38;19.13;;;4.30;99.90;;;;;;5063835;28;20159;-69
2024/02/13 05:28:47;;;;;;;50.92;21.60;;;4.30;99.90;;;;;;5062552;28;20031;-68
2024/02/13 05:31:12;;;;;;;49.92;20.60;;;4.30;99.90;;;;;;5064486;28;20024;-68
2024/02/13 05:33:39;;;;;;;50.13;19.50;;;4.20;99.90;;;;;;5064311;28;20660;-66
2024/02/13 05:36:05;;;;;;;49.53;21.60;;;4.20;99.90;;;;;;5063869;28;20017;-67
2024/02/13 05:38:42;;;;;;;56.30;23.05;;;4.20;99.90;;;;;;5061410;28;20128;-67
2024/02/13 05:41:08;;;;;;;54.63;22.80;;;4.10;99.90;;;;;;5063810;28;20025;-70
2024/02/13 05:43:34;;;;;;;54.45;23.42;;;4.10;99.90;;;;;;5064257;28;20035;-66
2024/02/13 05:45:59;;;;;;;57.63;23.55;;;4.10;99.90;;;;;;5062372;28;20064;-67
2024/02/13 05:48:25;;;;;;;59.53;24.50;;;4.00;99.90;;;;;;5063881;28;20052;-68
2024/02/13 05:50:51;;;;;;;63.78;25.15;;;4.00;99.90;;;;;;5064353;28;20025;-67
2024/02/13 05:53:17;;;;;;;67.57;27.63;;;4.00;99.90;;;;;;5063508;28;20024;-67
2024/02/13 05:55:43;;;;;;;64.47;26.92;;;3.90;99.90;;;;;;5061392;28;20025;-71
2024/02/13 05:58:08;;;;;;;63.95;26.83;;;3.90;99.90;;;;;;5063455;28;20114;-65
2024/02/13 06:00:34;;;;;;;64.68;28.60;;;3.90;99.90;;;;;;5062303;28;20033;-69
2024/02/13 06:03:00;;;;;;;59.67;26.55;;;3.90;99.90;;;;;;5062924;28;20075;-67
2024/02/13 06:05:27;;;;;;;67.15;29.45;;;3.90;99.90;;;;;;5062202;28;20059;-69
2024/02/13 06:07:53;;;;;;;65.47;29.90;;;3.90;99.90;;;;;;5062341;28;20415;-67
2024/02/13 06:10:21;;;;;;;67.45;29.60;;;3.90;99.90;;;;;;5059215;28;20092;-68
2024/02/13 06:12:47;;;;;;;73.80;30.38;;;3.90;99.90;;;;;;5061270;28;20128;-65
2024/02/13 06:15:13;;;;;;;68.13;29.13;;;3.90;99.90;;;;;;5059858;28;20060;-68
2024/02/13 06:17:40;;;;;;;70.55;29.30;;;3.80;99.90;;;;;;5062586;28;20040;-66
2024/02/13 06:20:08;;;;;;;68.43;30.45;;;3.80;99.90;;;;;;5063159;28;20037;-67
2024/02/13 06:22:37;;;;;;;78.43;30.42;;;3.80;99.90;;;;;;5062715;28;20024;-67
2024/02/13 06:25:04;;;;;;;67.40;29.15;;;3.90;99.90;;;;;;5060586;28;20029;-68
2024/02/13 06:27:34;;;;;;;70.85;28.65;;;3.80;99.90;;;;;;5061870;28;20037;-67
2024/02/13 06:30:00;;;;;;;66.20;28.00;;;3.90;99.90;;;;;;5055279;28;20029;-70
2024/02/13 06:32:26;;;;;;;71.03;30.98;;;3.90;99.90;;;;;;5058489;28;20037;-69
2024/02/13 06:34:55;;;;;;;59.00;23.27;;;3.90;99.90;;;;;;5060437;28;20029;-69
2024/02/13 06:37:21;;;;;;;77.55;28.67;;;3.90;99.90;;;;;;5058504;28;20032;-66
2024/02/13 06:39:50;;;;;;;79.53;29.73;;;3.90;99.90;;;;;;5062898;28;20029;-69
2024/02/13 06:42:16;;;;;;;68.90;29.40;;;3.90;99.90;;;;;;5062675;28;20111;-69
2024/02/13 06:44:43;;;;;;;74.90;31.98;;;3.90;99.90;;;;;;5061432;28;20032;-68
2024/02/13 06:47:09;;;;;;;75.50;30.15;;;3.80;99.90;;;;;;5061798;28;20033;-70
2024/02/13 06:49:36;;;;;;;70.10;29.77;;;3.80;99.90;;;;;;5060488;28;20037;-67
2024/02/13 06:52:01;;;;;;;75.72;30.98;;;3.80;99.90;;;;;;5061027;28;20085;-66
2024/02/13 06:54:27;;;;;;;77.68;32.08;;;3.80;99.90;;;;;;5061221;28;20067;-66
2024/02/13 06:56:52;;;;;;;78.45;32.13;;;3.80;99.90;;;;;;5063069;28;20465;-67
2024/02/13 06:59:18;;;;;;;74.45;30.88;;;3.80;99.90;;;;;;5063365;28;20036;-68
2024/02/13 07:01:44;;;;;;;71.15;32.47;;;3.80;99.90;;;;;;5063669;28;20484;-67
2024/02/13 07:04:10;;;;;;;73.00;29.90;;;3.80;99.90;;;;;;5061896;28;20507;-68
2024/02/13 07:06:37;;;;;;;73.72;31.00;;;3.80;99.90;;;;;;5062746;28;20055;-68
2024/02/13 07:09:05;;;;;;;68.93;31.25;;;4.00;99.90;;;;;;5063301;28;20021;-68
2024/02/13 07:11:30;;;;;;;76.97;30.58;;;3.90;99.90;;;;;;5062443;28;20071;-67
2024/02/13 07:13:56;;;;;;;66.32;28.58;;;3.90;99.90;;;;;;5062701;28;20052;-70
2024/02/13 07:16:21;;;;;;;71.35;28.38;;;3.90;99.90;;;;;;5063031;28;20021;-67
2024/02/13 07:18:47;;;;;;;66.97;29.17;;;4.00;99.90;;;;;;5061386;28;20024;-70
2024/02/13 07:21:13;;;;;;;61.80;26.60;;;4.00;99.90;;;;;;5061763;28;20095;-68
2024/02/13 07:23:38;;;;;;;59.97;26.48;;;4.00;99.90;;;;;;5060742;28;20100;-68
2024/02/13 07:26:04;;;;;;;63.97;27.60;;;4.10;99.90;;;;;;5061515;28;20044;-67
2024/02/13 07:28:30;;;;;;;68.70;29.30;;;4.10;99.90;;;;;;5059775;28;20096;-68
2024/02/13 07:30:56;;;;;;;65.60;27.23;;;4.20;99.90;;;;;;5059009;28;20029;-67
2024/02/13 07:33:22;;;;;;;68.63;28.55;;;4.20;99.90;;;;;;5059088;28;20099;-67
2024/02/13 07:35:48;;;;;;;59.38;27.05;;;4.30;99.90;;;;;;5061243;28;20076;-69
2024/02/13 07:38:13;;;;;;;62.35;26.98;;;4.30;99.90;;;;;;5060582;28;20028;-66
2024/02/13 07:40:39;;;;;;;67.28;28.27;;;4.40;99.90;;;;;;5059782;28;20029;-66
2024/02/13 07:43:06;;;;;;;61.17;27.35;;;4.40;99.90;;;;;;5059859;28;20021;-68
2024/02/13 07:45:32;;;;;;;62.35;27.73;;;4.50;99.90;;;;;;5058318;28;20029;-67
2024/02/13 07:47:59;;;;;;;61.30;26.77;;;4.60;99.90;;;;;;5059686;28;20557;-68
2024/02/13 07:50:26;;;;;;;64.47;28.10;;;4.70;99.90;;;;;;5058993;28;20024;-68
2024/02/13 07:52:51;;;;;;;58.28;26.27;;;4.80;99.90;;;;;;5060759;28;20052;-69
2024/02/13 07:55:18;;;;;;;54.90;23.60;;;4.90;99.90;;;;;;5062040;28;20021;-67
2024/02/13 07:57:49;;;;;;;57.95;25.23;;;4.90;99.90;;;;;;5059979;28;20013;-68
2024/02/13 08:00:20;;;;;;;53.40;26.40;;;4.80;99.90;;;;;;5059521;28;20108;-68
2024/02/13 08:02:48;;;;;;;61.63;26.40;;;4.90;99.90;;;;;;5057500;28;20037;-68
2024/02/13 08:05:13;;;;;;;60.00;28.00;;;4.90;99.90;;;;;;5060305;28;20036;-68
2024/02/13 08:07:39;;;;;;;69.57;28.20;;;4.90;99.90;;;;;;5059648;28;20081;-67
2024/02/13 08:10:06;;;;;;;62.35;27.73;;;4.90;99.90;;;;;;5062501;28;20017;-67
2024/02/13 08:12:34;;;;;;;64.30;30.80;;;4.90;99.90;;;;;;5054676;28;20024;-68
2024/02/13 08:15:00;;;;;;;61.17;29.45;;;4.90;99.90;;;;;;5058340;28;20052;-67
2024/02/13 08:17:25;;;;;;;63.13;27.92;;;4.90;99.90;;;;;;5055221;28;20056;-68
2024/02/13 08:19:51;;;;;;;62.35;29.75;;;4.90;99.90;;;;;;5057063;28;20021;-66
2024/02/13 08:22:18;;;;;;;64.10;27.30;;;4.90;99.90;;;;;;5058715;28;20541;-68
2024/02/13 08:24:44;;;;;;;63.22;30.13;;;4.90;99.90;;;;;;5061211;28;20027;-70
2024/02/13 08:27:10;;;;;;;68.97;30.73;;;4.90;99.90;;;;;;5058633;28;20462;-68
2024/02/13 08:29:35;;;;;;;71.00;30.58;;;4.90;99.90;;;;;;5061167;28;20025;-67
2024/02/13 08:32:06;;;;;;;69.47;29.92;;;5.00;99.90;;;;;;5059347;28;20064;-68
2024/02/13 08:34:32;;;;;;;61.30;27.80;;;5.00;99.90;;;;;;5058771;28;21089;-68
2024/02/13 08:36:57;;;;;;;61.15;28.95;;;5.10;99.90;;;;;;5059941;28;20045;-70
2024/02/13 08:39:23;;;;;;;68.70;30.23;;;5.10;99.90;;;;;;5061408;28;20019;-68
2024/02/13 08:41:49;;;;;;;65.05;27.90;;;5.20;99.90;;;;;;5061859;28;20481;-67
2024/02/13 08:44:16;;;;;;;66.90;30.45;;;5.20;99.90;;;;;;5060605;28;20025;-70
2024/02/13 08:46:41;;;;;;;63.25;27.60;;;5.30;99.90;;;;;;5063043;28;20045;-68
2024/02/13 08:49:07;;;;;;;70.10;29.88;;;5.30;99.90;;;;;;5061750;28;20400;-70
2024/02/13 08:51:33;;;;;;;61.85;28.60;;;5.40;99.90;;;;;;5061131;28;20040;-68
2024/02/13 08:53:59;;;;;;;55.88;28.13;;;5.40;99.90;;;;;;5063230;28;20025;-69
2024/02/13 08:56:25;;;;;;;59.90;27.80;;;5.50;99.90;;;;;;5061867;28;20082;-68
2024/02/13 08:58:52;;;;;;;59.45;27.95;;;5.60;99.90;;;;;;5063192;28;20108;-68
2024/02/13 09:01:21;;;;;;;54.95;27.90;;;5.60;99.90;;;;;;5062032;28;20020;-69
2024/02/13 09:03:48;;;;;;;48.90;25.45;;;5.60;99.90;;;;;;5063543;28;20099;-68
2024/02/13 09:06:15;;;;;;;57.03;25.10;;;5.60;99.90;;;;;;5063189;28;21049;-68
2024/02/13 09:08:42;;;;;;;56.08;25.83;;;5.60;99.90;;;;;;5064962;28;20112;-69
2024/02/13 09:11:08;;;;;;;49.85;23.92;;;5.70;99.90;;;;;;5064445;28;20703;-66
2024/02/13 09:13:34;;;;;;;50.15;24.17;;;5.80;99.90;;;;;;5062678;28;20037;-67
2024/02/13 09:15:59;;;;;;;55.03;25.08;;;5.80;99.90;;;;;;5065026;28;20036;-67
2024/02/13 09:18:25;;;;;;;57.22;25.23;;;5.90;99.90;;;;;;5055001;28;20032;-69
2024/02/13 09:20:51;;;;;;;51.65;23.05;;;5.90;99.90;;;;;;5059516;28;20124;-69
2024/02/13 09:23:19;;;;;;;49.13;24.48;;;6.00;99.90;;;;;;5059015;28;20036;-68
2024/02/13 09:25:49;;;;;;;46.47;22.58;;;5.90;99.90;;;;;;5061745;28;20047;-69
2024/02/13 09:28:17;;;;;;;38.67;18.30;;;6.00;99.90;;;;;;5064470;28;20037;-67
2024/02/13 09:30:44;;;;;;;45.13;22.25;;;6.00;99.90;;;;;;5064660;28;20032;-68
2024/02/13 09:33:10;;;;;;;49.10;22.92;;;6.00;99.90;;;;;;5064378;28;20999;-68
2024/02/13 09:35:36;;;;;;;44.58;23.13;;;6.10;99.90;;;;;;5064803;28;20021;-68
2024/02/13 09:38:02;;;;;;;41.22;19.23;;;6.20;99.90;;;;;;5062704;28;20819;-68
2024/02/13 09:40:28;;;;;;;39.80;20.70;;;6.20;99.90;;;;;;5065060;28;20592;-69
2024/02/13 09:42:54;;;;;;;44.42;22.75;;;6.20;99.90;;;;;;5063743;28;20037;-66
2024/02/13 09:45:21;;;;;;;44.05;22.60;;;6.30;99.90;;;;;;5060022;28;20093;-67
2024/02/13 09:47:49;;;;;;;45.78;22.63;;;6.30;99.90;;;;;;5060790;28;20037;-68
2024/02/13 09:50:15;;;;;;;43.25;18.85;;;6.40;99.90;;;;;;5061863;28;20037;-66
2024/02/13 09:52:54;;;;;;;44.25;21.70;;;6.40;99.90;;;;;;5062981;28;20036;-69
2024/02/13 09:55:20;;;;;;;47.42;21.25;;;6.50;99.90;;;;;;5057030;28;20035;-67
2024/02/13 09:57:48;;;;;;;44.05;21.55;;;6.60;99.90;;;;;;5062285;28;20112;-69
2024/02/13 10:00:19;;;;;;;38.95;19.52;;;6.40;99.90;;;;;;5060820;28;20029;-68
2024/02/13 10:02:48;;;;;;;40.25;19.60;;;6.60;99.90;;;;;;5056702;28;20048;-67
2024/02/13 10:05:14;;;;;;;39.63;21.33;;;6.60;99.90;;;;;;5063560;28;20048;-68
2024/02/13 10:07:41;;;;;;;40.70;20.52;;;6.60;99.90;;;;;;5063525;28;20049;-66
2024/02/13 10:10:11;;;;;;;38.25;19.38;;;6.60;99.90;;;;;;5062946;28;20024;-68
2024/02/13 10:12:54;;;;;;;40.10;20.20;;;6.70;99.90;;;;;;5063762;28;20017;-66
2024/02/13 10:15:21;;;;;;;41.40;19.70;;;6.70;99.90;;;;;;5063984;28;20084;-68
2024/02/13 10:17:47;;;;;;;38.33;19.33;;;6.70;99.90;;;;;;5063615;28;20466;-69
2024/02/13 10:20:17;;;;;;;34.22;17.60;;;6.60;99.90;;;;;;5063948;28;20021;-68
2024/02/13 10:22:47;;;;;;;38.20;19.80;;;6.70;99.90;;;;;;5062492;28;20029;-66
2024/02/13 10:25:25;;;;;;;36.53;19.17;;;6.60;99.90;;;;;;5063399;28;20118;-68
2024/02/13 10:27:53;;;;;;;33.67;18.63;;;6.80;99.90;;;;;;5062958;28;20181;-70
2024/02/13 10:30:27;;;;;;;42.78;18.08;;;6.80;99.90;;;;;;5063475;28;20021;-67
2024/02/13 10:32:53;;;;;;;;;;;6.90;99.90;;;;;;5063673;28;20029;-67
2024/02/13 10:35:23;;;;;;;39.30;18.23;;;6.90;99.90;;;;;;5063123;28;19905;-67
2024/02/13 10:37:50;;;;;;;29.77;16.58;;;6.90;99.90;;;;;;5063150;28;20485;-68
2024/02/13 10:40:24;;;;;;;34.20;18.38;;;6.90;99.90;;;;;;5063612;28;20413;-66
2024/02/13 10:42:50;;;;;;;29.58;16.65;;;7.00;99.90;;;;;;5063799;28;20032;-67
2024/02/13 10:45:17;;;;;;;32.25;16.20;;;7.00;99.90;;;;;;5063104;28;20054;-66
2024/02/13 10:47:51;;;;;;;30.95;15.48;;;7.10;99.90;;;;;;5061751;28;20029;-67
2024/02/13 10:50:19;;;;;;;32.00;17.50;;;7.00;99.90;;;;;;5063626;28;20027;-69
2024/02/13 10:52:49;;;;;;;34.45;16.17;;;7.10;99.90;;;;;;5063338;28;20017;-67
2024/02/13 10:55:18;;;;;;;42.42;16.42;;;7.10;99.90;;;;;;5062761;28;20035;-68
2024/02/13 10:57:46;;;;;;;36.10;17.23;;;7.20;99.90;;;;;;5057803;28;20029;-68
2024/02/13 11:00:18;;;;;;;34.45;17.13;;;7.20;99.90;;;;;;5055028;28;20062;-67
2024/02/13 11:02:52;;;;;;;33.75;15.25;;;7.30;99.90;;;;;;5057904;28;20473;-68
2024/02/13 11:05:18;;;;;;;30.73;14.98;;;7.40;99.90;;;;;;5061539;28;20021;-69
2024/02/13 11:07:45;;;;;;;33.65;15.02;;;7.60;99.90;;;;;;5060989;28;20041;-68
2024/02/13 11:10:12;;;;;;;29.10;15.32;;;7.70;99.90;;;;;;5055821;28;20029;-68
2024/02/13 11:12:39;;;;;;;29.75;15.98;;;7.80;99.90;;;;;;5060568;28;20036;-67
2024/02/13 11:15:15;;;;;;;28.98;15.15;;;7.90;99.90;;;;;;5056196;28;20066;-67
2024/02/13 11:17:57;;;;;;;33.08;15.15;;;7.90;99.90;;;;;;5051952;28;20374;-68
2024/02/13 11:20:27;;;;;;;36.15;17.13;;;8.00;99.90;;;;;;5059777;28;20122;-66
2024/02/13 11:22:55;;;;;;;31.25;13.75;;;8.00;99.90;;;;;;5062318;28;20040;-67
2024/02/13 11:25:27;;;;;;;29.42;14.93;;;8.00;99.90;;;;;;5061613;28;20017;-66
2024/02/13 11:28:03;;;;;;;38.72;14.85;;;8.00;99.90;;;;;;5057266;28;20037;-66
2024/02/13 11:30:29;;;;;;;27.80;14.55;;;7.90;99.90;;;;;;5060875;28;20058;-66
2024/02/13 11:33:01;;;;;;;31.67;14.70;;;7.90;99.90;;;;;;5061180;28;20021;-66
2024/02/13 11:35:29;;;;;;;24.55;14.02;;;8.00;99.90;;;;;;5061020;28;20048;-66
2024/02/13 11:37:56;;;;;;;27.55;14.07;;;8.00;99.90;;;;;;5056294;28;20465;-66
2024/02/13 11:40:22;;;;;;;27.75;14.32;;;8.10;99.90;;;;;;5057602;28;20035;-65
2024/02/13 11:42:48;;;;;;;30.35;15.50;;;8.10;99.90;;;;;;5060259;28;20025;-66
2024/02/13 11:45:21;;;;;;;29.17;14.40;;;8.20;99.90;;;;;;5060662;28;20025;-68
2024/02/13 11:47:49;;;;;;;25.47;14.17;;;8.30;99.90;;;;;;5060881;28;20037;-66
2024/02/13 11:50:16;;;;;;;27.27;13.43;;;8.40;99.90;;;;;;5058761;28;20025;-68
2024/02/13 11:52:43;;;;;;;30.58;14.85;;;8.60;99.90;;;;;;5057260;28;20530;-66
2024/02/13 11:55:10;;;;;;;28.77;14.55;;;8.70;99.90;;;;;;5057136;28;20105;-69
2024/02/13 11:57:37;;;;;;;26.42;13.65;;;8.70;99.90;;;;;;5057359;28;20050;-67
2024/02/13 12:00:12;;;;;;;25.60;12.18;;;8.80;99.90;;;;;;5056887;28;20033;-67
2024/02/13 12:02:39;;;;;;;27.42;13.10;;;8.80;99.90;;;;;;5056281;28;20087;-69
2024/02/13 12:05:10;;;;;;;32.28;13.15;;;8.80;99.90;;;;;;5056737;28;20112;-68
2024/02/13 12:07:37;;;;;;;23.92;13.23;;;8.80;99.90;;;;;;5056781;28;20123;-67
2024/02/13 12:10:06;;;;;;;30.30;13.85;;;8.80;99.90;;;;;;5059401;28;20021;-67
2024/02/13 12:12:33;;;;;;;35.08;12.55;;;8.80;99.90;;;;;;5057965;28;20032;-68
2024/02/13 12:14:59;;;;;;;29.33;12.75;;;8.90;99.90;;;;;;5060051;28;20017;-66
2024/02/13 12:17:26;;;;;;;27.33;12.75;;;8.90;99.90;;;;;;5059438;28;20052;-66
2024/02/13 12:19:55;;;;;;;30.20;12.30;;;8.90;99.90;;;;;;5059458;28;20040;-70
2024/02/13 12:22:25;;;;;;;25.98;11.98;;;8.90;99.90;;;;;;5060327;28;20021;-69
2024/02/13 12:24:50;;;;;;;25.63;11.65;;;8.90;99.90;;;;;;5059866;28;20033;-69
2024/02/13 12:27:16;;;;;;;25.45;11.60;;;8.90;99.90;;;;;;5061478;28;20037;-67
2024/02/13 12:29:45;;;;;;;26.88;11.68;;;8.90;99.90;;;;;;5059055;28;20478;-68
2024/02/13 12:32:20;;;;;;;23.40;10.52;;;8.90;99.90;;;;;;5060849;28;20032;-68
2024/02/13 12:34:50;;;;;;;23.83;11.45;;;9.00;99.90;;;;;;5060097;28;20028;-68
2024/02/13 12:37:16;;;;;;;22.00;11.18;;;8.90;99.90;;;;;;5058824;28;20017;-67
2024/02/13 12:39:43;;;;;;;23.02;10.35;;;8.90;99.90;;;;;;5058658;28;20021;-69
2024/02/13 12:42:13;;;;;;;21.70;9.52;;;8.80;99.90;;;;;;5060233;28;20147;-68
2024/02/13 12:44:40;;;;;;;22.48;11.38;;;8.80;99.90;;;;;;5066994;28;20051;-68